createdAt,value
2019-01-19T00:02:32.232Z,16.27
2019-01-19T00:05:18.956Z,13.50
2019-01-19T00:07:59.659Z,13.00
2019-01-19T00:10:56.924Z,9.97
2019-01-19T00:13:34.521Z,13.43
2019-01-19T00:16:11.957Z,10.77
2019-01-19T00:19:09.348Z,11.37
2019-01-19T00:21:50.148Z,12.63
2019-01-19T00:24:27.939Z,13.27
2019-01-19T00:27:30.678Z,12.13
2019-01-19T00:30:17.464Z,10.50
2019-01-19T00:33:04.016Z,11.87
2019-01-19T00:35:53.753Z,10.50
2019-01-19T00:38:34.400Z,11.43
2019-01-19T00:41:06.362Z,11.37
2019-01-19T00:43:35.475Z,8.27
2019-01-19T00:46:16.104Z,10.93
2019-01-19T00:48:47.732Z,11.80
2019-01-19T00:51:34.560Z,11.77
2019-01-19T00:54:21.292Z,13.77
2019-01-19T00:57:09.304Z,15.03
2019-01-19T00:59:37.831Z,13.70
2019-01-19T01:02:22.018Z,16.73
2019-01-19T01:04:56.425Z,14.83
2019-01-19T01:07:53.899Z,14.63
2019-01-19T01:10:28.467Z,14.90
2019-01-19T01:13:18.223Z,15.27
2019-01-19T01:16:02.095Z,14.57
2019-01-19T01:18:49.161Z,13.60
2019-01-19T01:21:35.180Z,14.93
2019-01-19T01:24:33.881Z,13.67
2019-01-19T01:27:17.560Z,14.67
2019-01-19T01:29:52.181Z,15.17
2019-01-19T01:32:38.864Z,15.63
2019-01-19T01:35:19.503Z,15.50
2019-01-19T01:37:57.031Z,15.17
2019-01-19T01:40:43.852Z,13.53
2019-01-19T01:43:18.460Z,14.20
2019-01-19T01:45:52.985Z,14.37
2019-01-19T01:48:47.832Z,13.97
2019-01-19T01:51:34.884Z,13.93
2019-01-19T01:54:23.289Z,14.73
2019-01-19T01:56:51.783Z,14.27
2019-01-19T01:59:35.536Z,13.73
2019-01-19T02:02:09.944Z,12.97
2019-01-19T02:05:10.999Z,13.23
2019-01-19T02:07:45.185Z,12.77
2019-01-19T02:10:50.600Z,13.00
2019-01-19T02:13:33.741Z,12.53
2019-01-19T02:16:17.603Z,13.00
2019-01-19T02:18:49.598Z,14.50
2019-01-19T02:21:24.068Z,14.47
2019-01-19T02:23:58.469Z,13.63
2019-01-19T02:26:33.400Z,14.83
2019-01-19T02:29:10.499Z,13.60
2019-01-19T02:31:47.825Z,13.37
2019-01-19T02:34:19.452Z,13.90
2019-01-19T02:36:53.907Z,13.17
2019-01-19T02:39:31.243Z,12.87
2019-01-19T02:42:22.613Z,13.63
2019-01-19T02:44:56.934Z,13.97
2019-01-19T02:47:53.098Z,13.73
2019-01-19T02:50:39.536Z,14.70
2019-01-19T02:53:25.933Z,13.60
2019-01-19T02:55:57.939Z,15.00
2019-01-19T02:58:50.904Z,14.43
2019-01-19T03:01:31.581Z,15.47
2019-01-19T03:04:08.784Z,14.27
2019-01-19T03:07:01.788Z,14.30
2019-01-19T03:09:45.152Z,15.37
2019-01-19T03:12:25.188Z,14.20
2019-01-19T03:15:16.295Z,14.87
2019-01-19T03:18:00.119Z,14.90
2019-01-19T03:20:43.716Z,14.67
2019-01-19T03:23:15.408Z,12.00
2019-01-19T03:25:52.655Z,13.03
2019-01-19T03:28:24.352Z,14.20
2019-01-19T03:31:04.618Z,14.77
2019-01-19T03:33:51.825Z,15.97
2019-01-19T03:36:51.812Z,13.43
2019-01-19T03:39:32.032Z,13.17
2019-01-19T03:42:12.669Z,12.47
2019-01-19T03:44:50.043Z,11.73
2019-01-19T03:47:21.680Z,13.30
2019-01-19T03:49:59.268Z,12.63
2019-01-19T03:52:30.927Z,13.47
2019-01-19T03:55:19.617Z,12.67
2019-01-19T03:57:54.218Z,12.70
2019-01-19T04:00:31.400Z,13.77
2019-01-19T04:03:26.715Z,13.93
2019-01-19T04:06:12.903Z,16.77
2019-01-19T04:09:08.401Z,16.57
2019-01-19T04:11:42.696Z,16.20
2019-01-19T04:14:47.452Z,13.93
2019-01-19T04:17:24.585Z,14.17
2019-01-19T04:20:02.208Z,15.50
2019-01-19T04:22:33.033Z,13.67
2019-01-19T04:25:04.696Z,15.10
2019-01-19T04:27:33.108Z,13.73
2019-01-19T04:30:01.578Z,14.80
2019-01-19T04:32:29.935Z,14.37
2019-01-19T04:34:58.337Z,15.07
2019-01-19T04:37:26.720Z,13.97
2019-01-19T04:39:55.127Z,14.03
2019-01-19T04:42:23.774Z,14.33
2019-01-19T04:44:52.221Z,13.60
2019-01-19T04:47:20.688Z,13.83
2019-01-19T04:49:49.085Z,13.70
2019-01-19T04:52:17.459Z,12.50
2019-01-19T04:54:45.944Z,13.00
2019-01-19T04:57:14.325Z,12.93
2019-01-19T04:59:42.815Z,12.43
2019-01-19T05:02:11.189Z,12.90
2019-01-19T05:04:39.726Z,12.50
2019-01-19T05:07:08.385Z,12.20
2019-01-19T05:09:36.760Z,13.40
2019-01-19T05:12:05.161Z,12.80
2019-01-19T05:14:33.559Z,13.83
2019-01-19T05:17:01.939Z,13.90
2019-01-19T05:19:30.418Z,13.67
2019-01-19T05:21:58.813Z,13.60
2019-01-19T05:24:27.264Z,13.47
2019-01-19T05:26:55.719Z,14.23
2019-01-19T05:29:24.047Z,13.73
2019-01-19T05:31:52.531Z,13.77
2019-01-19T05:34:20.932Z,13.90
2019-01-19T05:36:49.445Z,14.20
2019-01-19T05:39:17.901Z,13.40
2019-01-19T05:41:46.303Z,13.73
2019-01-19T05:44:14.681Z,13.93
2019-01-19T05:46:43.079Z,13.70
2019-01-19T05:49:11.452Z,13.87
2019-01-19T05:51:39.872Z,14.27
2019-01-19T05:54:08.256Z,14.07
2019-01-19T05:56:36.912Z,13.17
2019-01-19T05:59:05.294Z,13.30
2019-01-19T06:01:33.982Z,12.73
2019-01-19T06:04:02.356Z,13.83
2019-01-19T06:06:30.784Z,14.47
2019-01-19T06:08:59.172Z,13.77
2019-01-19T06:11:27.591Z,14.07
2019-01-19T06:13:56.070Z,13.87
2019-01-19T06:16:24.478Z,14.30
2019-01-19T06:18:53.624Z,13.83
2019-01-19T06:21:23.582Z,13.60
2019-01-19T06:23:52.027Z,13.93
2019-01-19T06:26:20.397Z,13.50
2019-01-19T06:28:48.759Z,13.83
2019-01-19T06:31:17.416Z,13.80
2019-01-19T06:33:46.648Z,13.63
2019-01-19T06:36:15.095Z,14.33
2019-01-19T06:38:43.729Z,13.67
2019-01-19T06:41:12.213Z,14.53
2019-01-19T06:43:40.873Z,13.80
2019-01-19T06:46:09.260Z,18.87
2019-01-19T06:48:37.689Z,28.40
2019-01-19T06:51:06.063Z,24.37
2019-01-19T06:53:34.462Z,19.33
2019-01-19T06:56:02.845Z,28.67
2019-01-19T06:58:31.299Z,15.93
2019-01-19T07:00:59.642Z,16.33
2019-01-19T07:03:28.051Z,14.97
2019-01-19T07:05:56.437Z,16.30
2019-01-19T07:08:25.145Z,14.70
2019-01-19T07:10:53.820Z,15.77
2019-01-19T07:13:22.220Z,15.60
2019-01-19T07:15:50.603Z,16.23
2019-01-19T07:18:19.005Z,15.00
2019-01-19T07:20:47.406Z,15.70
2019-01-19T07:23:15.884Z,15.60
2019-01-19T07:25:45.510Z,14.70
2019-01-19T07:28:13.977Z,16.57
2019-01-19T07:30:42.355Z,13.80
2019-01-19T07:33:10.758Z,14.43
2019-01-19T07:35:39.190Z,13.30
2019-01-19T07:38:07.587Z,13.20
2019-01-19T07:40:36.544Z,13.20
2019-01-19T07:43:05.812Z,14.17
2019-01-19T07:45:34.612Z,13.40
2019-01-19T07:48:03.557Z,16.97
2019-01-19T07:50:31.981Z,16.47
2019-01-19T07:53:00.651Z,14.53
2019-01-19T07:55:29.066Z,14.13
2019-01-19T07:57:57.431Z,17.40
2019-01-19T08:00:30.771Z,19.23
2019-01-19T08:02:59.179Z,19.40
2019-01-19T08:05:27.564Z,19.13
2019-01-19T08:07:56.035Z,19.27
2019-01-19T08:10:24.446Z,19.20
2019-01-19T08:12:52.860Z,19.50
2019-01-19T08:15:23.670Z,18.27
2019-01-19T08:17:52.088Z,19.53
2019-01-19T08:20:20.476Z,20.63
2019-01-19T08:22:49.154Z,19.67
2019-01-19T08:25:18.625Z,19.50
2019-01-19T08:27:47.093Z,18.60
2019-01-19T08:30:18.503Z,37.93
2019-01-19T08:32:46.920Z,19.60
2019-01-19T08:35:17.199Z,17.83
2019-01-19T08:37:45.739Z,29.30
2019-01-19T08:40:29.733Z,20.77
2019-01-19T08:43:05.847Z,17.63
2019-01-19T08:45:34.650Z,18.07
2019-01-19T08:48:03.890Z,17.50
2019-01-19T08:50:32.361Z,19.13
2019-01-19T08:53:00.693Z,17.83
2019-01-19T08:55:29.206Z,18.33
2019-01-19T08:57:57.598Z,16.37
2019-01-19T09:00:26.076Z,18.70
2019-01-19T09:02:54.461Z,18.00
2019-01-19T09:05:23.118Z,16.50
2019-01-19T09:07:51.492Z,16.70
2019-01-19T09:10:20.231Z,16.40
2019-01-19T09:12:49.128Z,16.90
2019-01-19T09:15:19.720Z,16.87
2019-01-19T09:17:49.168Z,17.20
2019-01-19T09:20:18.032Z,23.10
2019-01-19T09:22:48.132Z,20.30
2019-01-19T09:25:16.696Z,20.37
2019-01-19T09:27:45.075Z,19.43
2019-01-19T09:30:15.956Z,21.37
2019-01-19T09:32:44.505Z,19.70
2019-01-19T09:35:13.301Z,19.63
2019-01-19T09:37:41.851Z,17.20
2019-01-19T09:40:14.977Z,19.20
2019-01-19T09:42:43.623Z,19.23
2019-01-19T09:45:14.421Z,21.73
2019-01-19T09:47:43.205Z,22.03
2019-01-19T09:50:14.685Z,22.90
2019-01-19T09:52:43.091Z,20.57
2019-01-19T09:55:11.537Z,22.20
2019-01-19T09:57:39.957Z,20.10
2019-01-19T10:00:14.177Z,16.17
2019-01-19T10:02:42.556Z,16.37
2019-01-19T10:05:14.264Z,18.57
2019-01-19T10:07:48.402Z,16.53
2019-01-19T10:10:14.320Z,19.80
2019-01-19T10:12:42.699Z,18.63
2019-01-19T10:15:13.664Z,19.00
2019-01-19T10:17:42.041Z,20.27
2019-01-19T10:20:13.388Z,21.00
2019-01-19T10:22:41.763Z,18.93
2019-01-19T10:25:12.729Z,22.80
2019-01-19T10:27:41.099Z,21.57
2019-01-19T10:30:13.078Z,22.13
2019-01-19T10:32:41.476Z,20.83
2019-01-19T10:35:29.341Z,22.37
2019-01-19T10:37:57.725Z,21.13
2019-01-19T10:40:26.148Z,17.07
2019-01-19T10:42:54.629Z,21.87
2019-01-19T10:45:26.273Z,23.00
2019-01-19T10:48:03.631Z,21.90
2019-01-19T10:50:32.009Z,15.00
2019-01-19T10:53:00.427Z,21.23
2019-01-19T10:55:28.813Z,22.73
2019-01-19T10:57:57.230Z,22.70
2019-01-19T11:00:33.499Z,23.00
2019-01-19T11:03:01.912Z,19.40
2019-01-19T11:05:30.530Z,19.97
2019-01-19T11:08:03.535Z,19.53
2019-01-19T11:10:31.935Z,23.37
2019-01-19T11:13:00.327Z,22.63
2019-01-19T11:15:28.731Z,22.07
2019-01-19T11:17:57.413Z,19.63
2019-01-19T11:20:27.653Z,23.40
2019-01-19T11:22:58.461Z,22.90
2019-01-19T11:25:27.377Z,22.87
2019-01-19T11:27:57.188Z,22.50
2019-01-19T11:30:30.316Z,21.90
2019-01-19T11:32:58.695Z,21.73
2019-01-19T11:35:27.118Z,23.87
2019-01-19T11:37:55.486Z,23.40
2019-01-19T11:40:35.395Z,23.03
2019-01-19T11:43:04.543Z,22.50
2019-01-19T11:45:33.011Z,21.77
2019-01-19T11:48:01.825Z,23.33
2019-01-19T11:50:30.594Z,21.03
2019-01-19T11:52:59.489Z,22.30
2019-01-19T11:55:28.235Z,21.97
2019-01-19T11:57:59.563Z,22.30
2019-01-19T12:00:36.225Z,21.53
2019-01-19T12:03:05.436Z,23.60
2019-01-19T12:05:33.897Z,22.50
2019-01-19T12:08:02.379Z,18.83
2019-01-19T12:10:31.668Z,23.23
2019-01-19T12:13:00.109Z,24.77
2019-01-19T12:15:28.917Z,23.03
2019-01-19T12:17:57.328Z,21.73
2019-01-19T12:20:31.110Z,24.13
2019-01-19T12:23:00.028Z,21.90
2019-01-19T12:25:28.407Z,23.67
2019-01-19T12:27:56.793Z,23.23
2019-01-19T12:30:30.361Z,38.90
2019-01-19T12:32:58.757Z,23.23
2019-01-19T12:35:27.405Z,22.47
2019-01-19T12:37:56.123Z,21.23
2019-01-19T12:40:26.641Z,18.10
2019-01-19T12:43:12.937Z,22.47
2019-01-19T12:45:44.300Z,23.17
2019-01-19T12:48:12.687Z,21.00
2019-01-19T12:50:41.625Z,17.93
2019-01-19T12:53:09.981Z,29.30
2019-01-19T12:55:38.396Z,21.73
2019-01-19T12:58:08.050Z,22.27
2019-01-19T13:00:36.443Z,20.50
2019-01-19T13:03:05.589Z,22.27
2019-01-19T13:05:43.181Z,20.40
2019-01-19T13:08:15.516Z,21.40
2019-01-19T13:10:49.684Z,20.87
2019-01-19T13:13:18.062Z,21.03
2019-01-19T13:15:49.706Z,17.63
2019-01-19T13:18:24.486Z,19.97
2019-01-19T13:21:02.230Z,20.13
2019-01-19T13:24:18.718Z,18.30
2019-01-19T13:26:56.641Z,20.97
2019-01-19T13:29:31.333Z,21.93
2019-01-19T13:32:18.124Z,22.87
2019-01-19T13:34:58.878Z,20.70
2019-01-19T13:37:45.398Z,20.97
2019-01-19T13:40:25.897Z,20.63
2019-01-19T13:43:06.957Z,21.53
2019-01-19T13:45:51.562Z,27.97
2019-01-19T13:48:35.013Z,20.80
2019-01-19T13:51:22.215Z,20.97
2019-01-19T13:54:02.754Z,20.57
2019-01-19T13:56:43.504Z,19.30
2019-01-19T13:59:38.954Z,20.93
2019-01-19T14:02:19.443Z,21.53
2019-01-19T14:05:16.854Z,20.53
2019-01-19T14:08:04.855Z,20.20
2019-01-19T14:11:06.345Z,21.10
2019-01-19T14:14:06.329Z,19.13
2019-01-19T14:16:37.969Z,19.40
2019-01-19T14:19:35.570Z,20.63
2019-01-19T14:22:26.376Z,19.43
2019-01-19T14:25:09.979Z,22.03
2019-01-19T14:27:53.533Z,19.47
2019-01-19T14:30:37.404Z,18.23
2019-01-19T14:33:32.700Z,22.97
2019-01-19T14:36:14.402Z,20.27
2019-01-19T14:38:56.551Z,21.10
2019-01-19T14:41:40.325Z,20.83
2019-01-19T14:44:26.796Z,21.07
2019-01-19T14:47:12.849Z,20.37
2019-01-19T14:49:53.349Z,20.20
2019-01-19T14:52:40.032Z,20.27
2019-01-19T14:55:26.487Z,21.83
2019-01-19T14:58:31.087Z,19.37
2019-01-19T15:01:05.489Z,20.33
2019-01-19T15:03:45.770Z,22.50
2019-01-19T15:06:25.990Z,20.67
2019-01-19T15:09:12.932Z,18.40
2019-01-19T15:11:56.753Z,19.13
2019-01-19T15:14:34.551Z,19.17
2019-01-19T15:17:18.123Z,18.57
2019-01-19T15:20:09.229Z,18.67
2019-01-19T15:22:47.028Z,19.20
2019-01-19T15:25:48.077Z,19.07
2019-01-19T15:28:37.932Z,23.37
2019-01-19T15:31:16.977Z,20.23
2019-01-19T15:34:05.229Z,21.47
2019-01-19T15:37:08.976Z,20.53
2019-01-19T15:39:43.617Z,19.87
2019-01-19T15:42:35.121Z,21.60
2019-01-19T15:45:10.337Z,21.20
2019-01-19T15:48:06.053Z,51.63
2019-01-19T15:51:09.688Z,22.60
2019-01-19T15:53:49.873Z,21.97
2019-01-19T15:56:30.620Z,22.30
2019-01-19T15:59:21.379Z,23.53
2019-01-19T16:01:55.791Z,24.03
2019-01-19T16:04:48.619Z,22.27
2019-01-19T16:07:51.891Z,21.47
2019-01-19T16:10:29.703Z,23.10
2019-01-19T16:13:13.335Z,23.63
2019-01-19T16:15:56.736Z,22.40
2019-01-19T16:18:52.888Z,18.37
2019-01-19T16:21:41.259Z,22.23
2019-01-19T16:24:16.049Z,23.80
2019-01-19T16:26:47.715Z,23.00
2019-01-19T16:29:20.402Z,23.33
2019-01-19T16:31:52.031Z,24.57
2019-01-19T16:34:38.993Z,22.27
2019-01-19T16:37:16.868Z,21.23
2019-01-19T16:40:06.640Z,23.03
2019-01-19T16:42:53.002Z,25.17
2019-01-19T16:45:27.349Z,17.63
2019-01-19T16:48:19.952Z,24.73
2019-01-19T16:50:51.640Z,25.30
2019-01-19T16:53:45.871Z,20.47
2019-01-19T16:56:18.030Z,20.70
2019-01-19T16:59:07.964Z,21.50
2019-01-19T17:01:54.003Z,20.40
2019-01-19T17:04:25.897Z,21.37
2019-01-19T17:07:14.239Z,23.07
2019-01-19T17:09:57.550Z,22.73
2019-01-19T17:12:38.173Z,23.53
2019-01-19T17:15:21.115Z,19.17
2019-01-19T17:17:58.511Z,23.33
2019-01-19T17:20:39.005Z,22.43
2019-01-19T17:23:25.022Z,13.83
2019-01-19T17:26:05.544Z,21.27
2019-01-19T17:28:43.558Z,19.37
2019-01-19T17:31:23.834Z,17.27
2019-01-19T17:34:07.632Z,20.00
2019-01-19T17:36:39.348Z,17.07
2019-01-19T17:39:26.108Z,24.03
2019-01-19T17:42:09.861Z,18.17
2019-01-19T17:44:50.665Z,20.93
2019-01-19T17:47:25.093Z,17.50
2019-01-19T17:50:05.568Z,23.10
2019-01-19T17:52:40.193Z,21.20
2019-01-19T17:55:26.780Z,18.37
2019-01-19T17:58:15.350Z,21.30
2019-01-19T18:00:58.985Z,19.83
2019-01-19T18:04:00.778Z,19.57
2019-01-19T18:06:50.525Z,18.60
2019-01-19T18:09:30.472Z,18.83
2019-01-19T18:12:07.772Z,25.50
2019-01-19T18:14:42.175Z,20.57
2019-01-19T18:17:13.854Z,19.80
2019-01-19T18:19:56.297Z,18.10
2019-01-19T18:22:33.704Z,17.63
2019-01-19T18:25:26.818Z,28.10
2019-01-19T18:28:10.628Z,18.20
2019-01-19T18:30:48.196Z,20.17
2019-01-19T18:33:29.775Z,21.83
2019-01-19T18:36:07.040Z,21.63
2019-01-19T18:38:50.829Z,23.07
2019-01-19T18:41:40.864Z,24.67
2019-01-19T18:44:34.704Z,20.63
2019-01-19T18:47:17.741Z,26.17
2019-01-19T18:50:22.308Z,19.03
2019-01-19T18:53:00.130Z,20.53
2019-01-19T18:55:49.585Z,19.97
2019-01-19T18:58:43.525Z,23.70
2019-01-19T19:01:24.015Z,23.17
2019-01-19T19:04:01.152Z,17.53
2019-01-19T19:06:49.102Z,19.97
2019-01-19T19:09:20.744Z,17.97
2019-01-19T19:12:11.917Z,24.47
2019-01-19T19:14:49.516Z,20.17
2019-01-19T19:17:29.843Z,24.57
2019-01-19T19:20:04.549Z,28.23
2019-01-19T19:22:44.792Z,24.60
2019-01-19T19:25:28.444Z,26.97
2019-01-19T19:28:02.708Z,27.63
2019-01-19T19:30:43.381Z,26.37
2019-01-19T19:33:33.164Z,24.47
2019-01-19T19:36:29.230Z,22.77
2019-01-19T19:39:13.018Z,22.37
2019-01-19T19:41:56.780Z,27.97
2019-01-19T19:44:31.427Z,26.47
2019-01-19T19:47:23.906Z,22.80
2019-01-19T19:50:15.328Z,26.07
2019-01-19T19:52:43.708Z,28.00
2019-01-19T19:55:11.225Z,24.27
2019-01-19T19:57:39.605Z,23.40
2019-01-19T20:00:09.996Z,22.80
2019-01-19T20:02:38.421Z,25.00
2019-01-19T20:05:09.360Z,24.87
2019-01-19T20:07:37.829Z,22.97
2019-01-19T20:10:16.961Z,25.03
2019-01-19T20:12:42.777Z,22.93
2019-01-19T20:15:11.195Z,21.50
2019-01-19T20:17:39.936Z,21.77
2019-01-19T20:20:11.684Z,22.23
2019-01-19T20:22:40.061Z,26.60
2019-01-19T20:25:08.655Z,22.37
2019-01-19T20:27:37.031Z,18.20
2019-01-19T20:30:11.599Z,23.40
2019-01-19T20:32:39.972Z,20.80
2019-01-19T20:35:08.668Z,29.07
2019-01-19T20:37:37.309Z,28.23
2019-01-19T20:40:08.245Z,24.57
2019-01-19T20:42:36.641Z,20.67
2019-01-19T20:45:11.292Z,26.50
2019-01-19T20:47:39.673Z,21.50
2019-01-19T20:50:10.437Z,23.13
2019-01-19T20:52:38.815Z,23.90
2019-01-19T20:55:09.376Z,24.07
2019-01-19T20:57:37.761Z,25.20
2019-01-19T21:00:15.330Z,19.63
2019-01-19T21:02:43.751Z,25.00
2019-01-19T21:05:12.144Z,30.53
2019-01-19T21:07:40.523Z,18.23
2019-01-19T21:10:09.100Z,26.40
2019-01-19T21:12:37.500Z,22.10
2019-01-19T21:15:09.171Z,26.80
2019-01-19T21:17:37.552Z,30.43
2019-01-19T21:20:08.600Z,28.77
2019-01-19T21:22:36.976Z,27.63
2019-01-19T21:25:07.016Z,30.73
2019-01-19T21:27:35.398Z,28.27
2019-01-19T21:30:05.129Z,30.53
2019-01-19T21:32:33.507Z,25.63
2019-01-19T21:35:01.915Z,24.73
2019-01-19T21:37:30.344Z,30.10
2019-01-19T21:39:58.797Z,32.40
2019-01-19T21:42:27.144Z,29.83
2019-01-19T21:44:55.549Z,23.23
2019-01-19T21:47:23.936Z,31.90
2019-01-19T21:49:52.320Z,30.37
2019-01-19T21:52:20.967Z,32.03
2019-01-19T21:54:49.420Z,28.33
2019-01-19T21:57:17.804Z,31.40
2019-01-19T21:59:46.188Z,23.43
2019-01-19T22:02:14.594Z,18.53
2019-01-19T22:04:42.969Z,30.80
2019-01-19T22:07:11.392Z,28.03
2019-01-19T22:09:40.251Z,25.33
2019-01-19T22:12:09.698Z,31.40
2019-01-19T22:14:38.144Z,22.57
2019-01-19T22:17:06.549Z,28.13
2019-01-19T22:19:34.924Z,23.63
2019-01-19T22:22:03.332Z,22.33
2019-01-19T22:24:31.709Z,29.10
2019-01-19T22:27:00.399Z,31.17
2019-01-19T22:29:28.827Z,30.77
2019-01-19T22:31:57.231Z,28.60
2019-01-19T22:34:25.616Z,22.03
2019-01-19T22:36:54.383Z,21.90
2019-01-19T22:39:22.775Z,27.77
2019-01-19T22:41:51.259Z,31.53
2019-01-19T22:44:19.637Z,25.47
2019-01-19T22:46:48.043Z,19.57
2019-01-19T22:49:16.427Z,32.07
2019-01-19T22:51:44.829Z,21.33
2019-01-19T22:54:13.236Z,25.83
2019-01-19T22:56:41.640Z,26.50
2019-01-19T22:59:10.034Z,22.33
2019-01-19T23:01:38.493Z,31.77
2019-01-19T23:04:06.872Z,27.60
2019-01-19T23:06:35.297Z,24.00
2019-01-19T23:09:06.793Z,29.93
2019-01-19T23:11:35.199Z,32.57
2019-01-19T23:14:04.766Z,29.27
2019-01-19T23:16:33.164Z,27.37
2019-01-19T23:19:01.546Z,30.03
2019-01-19T23:21:29.953Z,30.60
2019-01-19T23:23:58.630Z,27.40
2019-01-19T23:26:27.540Z,21.97
2019-01-19T23:28:55.924Z,32.47
2019-01-19T23:31:24.322Z,31.40
2019-01-19T23:33:52.780Z,28.90
2019-01-19T23:36:21.151Z,26.63
2019-01-19T23:38:49.560Z,19.53
2019-01-19T23:41:17.939Z,23.40
2019-01-19T23:43:46.340Z,29.57
2019-01-19T23:46:14.727Z,29.23
2019-01-19T23:48:43.124Z,23.47
2019-01-19T23:51:11.546Z,32.50
2019-01-19T23:53:40.057Z,29.73
2019-01-19T23:56:08.738Z,27.20
2019-01-19T23:58:37.161Z,30.03
